sensor_id;sensor_type;location;lat;lon;timestamp;P1;durP1;ratioP1;P2;durP2;ratioP2
13090;SDS011;6611;52.604;13.438;2024-03-29T00:04:45;0.77;;;0.47;;
13090;SDS011;6611;52.604;13.438;2024-03-29T00:09:49;1.47;;;0.70;;
13090;SDS011;6611;52.604;13.438;2024-03-29T00:14:51;1.27;;;0.43;;
13090;SDS011;6611;52.604;13.438;2024-03-29T00:19:52;1.60;;;0.53;;
13090;SDS011;6611;52.604;13.438;2024-03-29T00:24:53;1.07;;;0.53;;
13090;SDS011;6611;52.604;13.438;2024-03-29T00:29:55;1.17;;;0.60;;
13090;SDS011;6611;52.604;13.438;2024-03-29T00:34:56;0.50;;;0.33;;
13090;SDS011;6611;52.604;13.438;2024-03-29T00:39:57;2.23;;;0.70;;
13090;SDS011;6611;52.604;13.438;2024-03-29T00:44:59;1.63;;;0.57;;
13090;SDS011;6611;52.604;13.438;2024-03-29T00:49:59;1.07;;;0.70;;
13090;SDS011;6611;52.604;13.438;2024-03-29T00:55:04;1.07;;;0.50;;
13090;SDS011;6611;52.604;13.438;2024-03-29T01:00:07;2.33;;;0.70;;
13090;SDS011;6611;52.604;13.438;2024-03-29T01:05:09;1.07;;;0.57;;
13090;SDS011;6611;52.604;13.438;2024-03-29T01:10:09;2.27;;;0.60;;
13090;SDS011;6611;52.604;13.438;2024-03-29T01:15:11;2.53;;;0.60;;
13090;SDS011;6611;52.604;13.438;2024-03-29T01:20:12;0.90;;;0.60;;
13090;SDS011;6611;52.604;13.438;2024-03-29T01:25:13;1.27;;;0.60;;
13090;SDS011;6611;52.604;13.438;2024-03-29T01:30:15;1.33;;;0.70;;
13090;SDS011;6611;52.604;13.438;2024-03-29T01:35:16;0.50;;;0.50;;
13090;SDS011;6611;52.604;13.438;2024-03-29T01:40:16;2.60;;;0.70;;
13090;SDS011;6611;52.604;13.438;2024-03-29T01:45:18;1.00;;;0.80;;
13090;SDS011;6611;52.604;13.438;2024-03-29T01:50:20;1.20;;;0.73;;
13090;SDS011;6611;52.604;13.438;2024-03-29T01:55:24;0.70;;;0.50;;
13090;SDS011;6611;52.604;13.438;2024-03-29T02:00:28;0.97;;;0.57;;
13090;SDS011;6611;52.604;13.438;2024-03-29T02:05:31;2.00;;;0.73;;
13090;SDS011;6611;52.604;13.438;2024-03-29T02:10:33;1.53;;;0.70;;
13090;SDS011;6611;52.604;13.438;2024-03-29T02:15:37;2.30;;;1.10;;
13090;SDS011;6611;52.604;13.438;2024-03-29T02:20:39;0.90;;;0.90;;
13090;SDS011;6611;52.604;13.438;2024-03-29T02:25:43;0.77;;;0.77;;
13090;SDS011;6611;52.604;13.438;2024-03-29T02:30:45;1.17;;;0.80;;
13090;SDS011;6611;52.604;13.438;2024-03-29T02:35:47;1.30;;;1.03;;
13090;SDS011;6611;52.604;13.438;2024-03-29T02:40:50;1.73;;;0.93;;
13090;SDS011;6611;52.604;13.438;2024-03-29T02:45:52;1.67;;;1.10;;
13090;SDS011;6611;52.604;13.438;2024-03-29T02:50:53;1.37;;;1.03;;
13090;SDS011;6611;52.604;13.438;2024-03-29T02:55:56;2.53;;;1.20;;
13090;SDS011;6611;52.604;13.438;2024-03-29T03:01:04;2.00;;;1.03;;
13090;SDS011;6611;52.604;13.438;2024-03-29T03:06:06;2.60;;;0.97;;
13090;SDS011;6611;52.604;13.438;2024-03-29T03:11:09;0.83;;;0.83;;
13090;SDS011;6611;52.604;13.438;2024-03-29T03:16:13;3.87;;;1.30;;
13090;SDS011;6611;52.604;13.438;2024-03-29T03:21:15;3.10;;;1.30;;
13090;SDS011;6611;52.604;13.438;2024-03-29T03:26:18;3.80;;;1.17;;
13090;SDS011;6611;52.604;13.438;2024-03-29T03:31:19;1.60;;;1.37;;
13090;SDS011;6611;52.604;13.438;2024-03-29T03:36:21;1.83;;;1.10;;
13090;SDS011;6611;52.604;13.438;2024-03-29T03:41:24;4.00;;;1.10;;
13090;SDS011;6611;52.604;13.438;2024-03-29T03:46:26;3.77;;;1.37;;
13090;SDS011;6611;52.604;13.438;2024-03-29T03:51:28;2.60;;;1.60;;
13090;SDS011;6611;52.604;13.438;2024-03-29T03:56:31;1.87;;;1.20;;
13090;SDS011;6611;52.604;13.438;2024-03-29T04:01:33;1.77;;;1.20;;
13090;SDS011;6611;52.604;13.438;2024-03-29T04:06:35;1.33;;;1.20;;
13090;SDS011;6611;52.604;13.438;2024-03-29T04:11:38;2.37;;;1.40;;
13090;SDS011;6611;52.604;13.438;2024-03-29T04:16:41;10.03;;;1.67;;
13090;SDS011;6611;52.604;13.438;2024-03-29T04:21:43;1.77;;;1.37;;
13090;SDS011;6611;52.604;13.438;2024-03-29T04:26:46;1.27;;;1.17;;
13090;SDS011;6611;52.604;13.438;2024-03-29T04:31:48;2.63;;;1.13;;
13090;SDS011;6611;52.604;13.438;2024-03-29T04:36:49;2.80;;;1.33;;
13090;SDS011;6611;52.604;13.438;2024-03-29T04:41:52;1.97;;;1.27;;
13090;SDS011;6611;52.604;13.438;2024-03-29T04:46:55;1.90;;;1.20;;
13090;SDS011;6611;52.604;13.438;2024-03-29T04:51:56;2.87;;;1.10;;
13090;SDS011;6611;52.604;13.438;2024-03-29T04:56:59;2.33;;;1.30;;
13090;SDS011;6611;52.604;13.438;2024-03-29T05:02:03;2.27;;;1.30;;
13090;SDS011;6611;52.604;13.438;2024-03-29T05:07:05;2.87;;;1.03;;
13090;SDS011;6611;52.604;13.438;2024-03-29T05:12:08;1.33;;;1.10;;
13090;SDS011;6611;52.604;13.438;2024-03-29T05:17:10;2.40;;;1.27;;
13090;SDS011;6611;52.604;13.438;2024-03-29T05:22:11;2.43;;;0.90;;
13090;SDS011;6611;52.604;13.438;2024-03-29T05:27:14;3.63;;;0.87;;
13090;SDS011;6611;52.604;13.438;2024-03-29T05:32:16;2.57;;;1.13;;
13090;SDS011;6611;52.604;13.438;2024-03-29T05:37:19;1.83;;;1.00;;
13090;SDS011;6611;52.604;13.438;2024-03-29T05:42:23;2.40;;;1.30;;
13090;SDS011;6611;52.604;13.438;2024-03-29T05:47:25;2.70;;;1.10;;
13090;SDS011;6611;52.604;13.438;2024-03-29T05:52:26;1.93;;;1.00;;
13090;SDS011;6611;52.604;13.438;2024-03-29T05:57:30;1.40;;;0.80;;
13090;SDS011;6611;52.604;13.438;2024-03-29T06:02:34;1.00;;;0.60;;
13090;SDS011;6611;52.604;13.438;2024-03-29T06:07:36;5.43;;;0.97;;
13090;SDS011;6611;52.604;13.438;2024-03-29T06:12:40;3.30;;;1.40;;
13090;SDS011;6611;52.604;13.438;2024-03-29T06:17:41;2.10;;;1.00;;
13090;SDS011;6611;52.604;13.438;2024-03-29T06:22:43;0.97;;;0.77;;
13090;SDS011;6611;52.604;13.438;2024-03-29T06:27:46;3.00;;;1.00;;
13090;SDS011;6611;52.604;13.438;2024-03-29T06:32:48;2.50;;;0.90;;
13090;SDS011;6611;52.604;13.438;2024-03-29T06:37:50;2.33;;;0.90;;
13090;SDS011;6611;52.604;13.438;2024-03-29T06:42:53;1.20;;;0.77;;
13090;SDS011;6611;52.604;13.438;2024-03-29T06:47:56;2.63;;;1.07;;
13090;SDS011;6611;52.604;13.438;2024-03-29T06:52:58;1.27;;;1.00;;
13090;SDS011;6611;52.604;13.438;2024-03-29T06:58:01;2.53;;;1.00;;
13090;SDS011;6611;52.604;13.438;2024-03-29T07:03:02;1.47;;;0.70;;
13090;SDS011;6611;52.604;13.438;2024-03-29T07:08:04;1.97;;;0.90;;
13090;SDS011;6611;52.604;13.438;2024-03-29T07:13:07;3.93;;;1.20;;
13090;SDS011;6611;52.604;13.438;2024-03-29T07:18:10;3.53;;;0.90;;
13090;SDS011;6611;52.604;13.438;2024-03-29T07:23:11;2.87;;;0.90;;
13090;SDS011;6611;52.604;13.438;2024-03-29T07:28:15;3.57;;;0.80;;
13090;SDS011;6611;52.604;13.438;2024-03-29T07:33:17;1.43;;;0.73;;
13090;SDS011;6611;52.604;13.438;2024-03-29T07:38:21;2.07;;;1.03;;
13090;SDS011;6611;52.604;13.438;2024-03-29T07:43:25;1.20;;;0.70;;
13090;SDS011;6611;52.604;13.438;2024-03-29T07:48:26;1.53;;;0.77;;
13090;SDS011;6611;52.604;13.438;2024-03-29T07:53:28;2.37;;;1.07;;
13090;SDS011;6611;52.604;13.438;2024-03-29T07:58:31;3.60;;;1.17;;
13090;SDS011;6611;52.604;13.438;2024-03-29T08:03:33;4.33;;;1.10;;
13090;SDS011;6611;52.604;13.438;2024-03-29T08:08:34;3.93;;;1.03;;
13090;SDS011;6611;52.604;13.438;2024-03-29T08:13:37;1.90;;;0.80;;
13090;SDS011;6611;52.604;13.438;2024-03-29T08:18:40;2.43;;;0.63;;
13090;SDS011;6611;52.604;13.438;2024-03-29T08:23:42;1.80;;;0.63;;
13090;SDS011;6611;52.604;13.438;2024-03-29T08:28:47;1.07;;;0.60;;
13090;SDS011;6611;52.604;13.438;2024-03-29T08:33:49;1.83;;;0.60;;
13090;SDS011;6611;52.604;13.438;2024-03-29T08:38:52;3.37;;;0.80;;
13090;SDS011;6611;52.604;13.438;2024-03-29T08:43:55;1.43;;;0.93;;
13090;SDS011;6611;52.604;13.438;2024-03-29T08:48:57;1.67;;;0.80;;
13090;SDS011;6611;52.604;13.438;2024-03-29T08:53:58;1.63;;;0.80;;
13090;SDS011;6611;52.604;13.438;2024-03-29T08:59:06;3.03;;;0.87;;
13090;SDS011;6611;52.604;13.438;2024-03-29T09:04:09;1.83;;;1.00;;
13090;SDS011;6611;52.604;13.438;2024-03-29T09:09:11;1.70;;;0.90;;
13090;SDS011;6611;52.604;13.438;2024-03-29T09:14:15;1.80;;;1.20;;
13090;SDS011;6611;52.604;13.438;2024-03-29T09:19:17;2.63;;;1.20;;
13090;SDS011;6611;52.604;13.438;2024-03-29T09:24:18;3.23;;;0.90;;
13090;SDS011;6611;52.604;13.438;2024-03-29T09:29:23;2.07;;;0.93;;
13090;SDS011;6611;52.604;13.438;2024-03-29T09:34:25;3.43;;;1.47;;
13090;SDS011;6611;52.604;13.438;2024-03-29T09:39:28;1.53;;;0.70;;
13090;SDS011;6611;52.604;13.438;2024-03-29T09:44:32;2.60;;;0.90;;
13090;SDS011;6611;52.604;13.438;2024-03-29T09:49:36;1.77;;;0.90;;
13090;SDS011;6611;52.604;13.438;2024-03-29T09:54:39;2.10;;;1.00;;
13090;SDS011;6611;52.604;13.438;2024-03-29T09:59:42;1.00;;;0.50;;
13090;SDS011;6611;52.604;13.438;2024-03-29T10:04:43;1.43;;;0.70;;
13090;SDS011;6611;52.604;13.438;2024-03-29T10:09:47;2.03;;;0.93;;
13090;SDS011;6611;52.604;13.438;2024-03-29T10:14:52;2.03;;;0.90;;
13090;SDS011;6611;52.604;13.438;2024-03-29T10:19:59;1.20;;;0.70;;
13090;SDS011;6611;52.604;13.438;2024-03-29T10:25:01;2.57;;;1.23;;
13090;SDS011;6611;52.604;13.438;2024-03-29T10:30:06;1.60;;;0.70;;
13090;SDS011;6611;52.604;13.438;2024-03-29T10:35:09;1.37;;;0.70;;
13090;SDS011;6611;52.604;13.438;2024-03-29T10:40:11;2.30;;;1.10;;
13090;SDS011;6611;52.604;13.438;2024-03-29T10:45:17;1.03;;;0.70;;
13090;SDS011;6611;52.604;13.438;2024-03-29T10:50:19;0.90;;;0.83;;
13090;SDS011;6611;52.604;13.438;2024-03-29T10:55:23;2.77;;;0.87;;
13090;SDS011;6611;52.604;13.438;2024-03-29T11:00:27;1.03;;;0.70;;
13090;SDS011;6611;52.604;13.438;2024-03-29T11:05:30;1.97;;;0.60;;
13090;SDS011;6611;52.604;13.438;2024-03-29T11:10:35;1.73;;;0.70;;
13090;SDS011;6611;52.604;13.438;2024-03-29T11:15:41;1.13;;;0.63;;
13090;SDS011;6611;52.604;13.438;2024-03-29T11:20:45;1.57;;;1.07;;
13090;SDS011;6611;52.604;13.438;2024-03-29T11:25:52;2.53;;;1.20;;
13090;SDS011;6611;52.604;13.438;2024-03-29T11:30:57;1.33;;;0.80;;
13090;SDS011;6611;52.604;13.438;2024-03-29T11:36:07;1.63;;;0.80;;
13090;SDS011;6611;52.604;13.438;2024-03-29T11:41:12;1.27;;;0.97;;
13090;SDS011;6611;52.604;13.438;2024-03-29T11:46:16;1.70;;;1.00;;
13090;SDS011;6611;52.604;13.438;2024-03-29T11:51:18;1.30;;;0.80;;
13090;SDS011;6611;52.604;13.438;2024-03-29T11:56:22;3.20;;;0.97;;
13090;SDS011;6611;52.604;13.438;2024-03-29T12:01:25;1.20;;;0.87;;
13090;SDS011;6611;52.604;13.438;2024-03-29T12:06:29;1.93;;;0.67;;
13090;SDS011;6611;52.604;13.438;2024-03-29T12:11:31;0.90;;;0.80;;
13090;SDS011;6611;52.604;13.438;2024-03-29T12:16:43;0.80;;;0.60;;
13090;SDS011;6611;52.604;13.438;2024-03-29T12:21:45;1.37;;;1.20;;
13090;SDS011;6611;52.604;13.438;2024-03-29T12:26:47;1.27;;;0.60;;
13090;SDS011;6611;52.604;13.438;2024-03-29T12:31:58;1.13;;;0.70;;
13090;SDS011;6611;52.604;13.438;2024-03-29T12:37:01;1.10;;;0.70;;
13090;SDS011;6611;52.604;13.438;2024-03-29T12:42:03;1.87;;;0.70;;
13090;SDS011;6611;52.604;13.438;2024-03-29T12:47:08;1.43;;;0.83;;
13090;SDS011;6611;52.604;13.438;2024-03-29T12:52:10;0.97;;;0.73;;
13090;SDS011;6611;52.604;13.438;2024-03-29T12:57:11;0.83;;;0.57;;
13090;SDS011;6611;52.604;13.438;2024-03-29T13:02:14;1.47;;;0.70;;
13090;SDS011;6611;52.604;13.438;2024-03-29T13:07:16;1.33;;;0.70;;
13090;SDS011;6611;52.604;13.438;2024-03-29T13:12:18;1.20;;;0.70;;
13090;SDS011;6611;52.604;13.438;2024-03-29T13:17:21;1.77;;;1.30;;
13090;SDS011;6611;52.604;13.438;2024-03-29T13:22:23;1.10;;;0.70;;
13090;SDS011;6611;52.604;13.438;2024-03-29T13:27:24;1.03;;;0.77;;
13090;SDS011;6611;52.604;13.438;2024-03-29T13:32:27;3.03;;;1.27;;
13090;SDS011;6611;52.604;13.438;2024-03-29T13:37:32;2.00;;;0.80;;
13090;SDS011;6611;52.604;13.438;2024-03-29T13:42:34;2.73;;;0.90;;
13090;SDS011;6611;52.604;13.438;2024-03-29T13:47:37;1.30;;;0.80;;
13090;SDS011;6611;52.604;13.438;2024-03-29T13:52:40;1.57;;;0.87;;
13090;SDS011;6611;52.604;13.438;2024-03-29T13:57:42;1.57;;;1.00;;
13090;SDS011;6611;52.604;13.438;2024-03-29T14:02:46;1.10;;;0.70;;
13090;SDS011;6611;52.604;13.438;2024-03-29T14:07:48;1.37;;;0.70;;
13090;SDS011;6611;52.604;13.438;2024-03-29T14:12:50;2.27;;;0.93;;
13090;SDS011;6611;52.604;13.438;2024-03-29T14:17:54;0.60;;;0.60;;
13090;SDS011;6611;52.604;13.438;2024-03-29T14:22:56;0.93;;;0.63;;
13090;SDS011;6611;52.604;13.438;2024-03-29T14:28:04;1.10;;;0.60;;
13090;SDS011;6611;52.604;13.438;2024-03-29T14:33:08;1.47;;;0.67;;
13090;SDS011;6611;52.604;13.438;2024-03-29T14:38:09;0.83;;;0.60;;
13090;SDS011;6611;52.604;13.438;2024-03-29T14:43:11;1.93;;;0.60;;
13090;SDS011;6611;52.604;13.438;2024-03-29T14:48:15;1.03;;;0.80;;
13090;SDS011;6611;52.604;13.438;2024-03-29T14:53:18;1.87;;;0.70;;
13090;SDS011;6611;52.604;13.438;2024-03-29T14:58:19;1.03;;;0.60;;
13090;SDS011;6611;52.604;13.438;2024-03-29T15:03:23;0.87;;;0.60;;
13090;SDS011;6611;52.604;13.438;2024-03-29T15:08:25;1.83;;;0.70;;
13090;SDS011;6611;52.604;13.438;2024-03-29T15:13:26;2.13;;;0.90;;
13090;SDS011;6611;52.604;13.438;2024-03-29T15:18:30;2.03;;;0.50;;
13090;SDS011;6611;52.604;13.438;2024-03-29T15:23:32;0.87;;;0.53;;
13090;SDS011;6611;52.604;13.438;2024-03-29T15:28:33;0.80;;;0.50;;
13090;SDS011;6611;52.604;13.438;2024-03-29T15:33:57;2.10;;;0.70;;
13090;SDS011;6611;52.604;13.438;2024-03-29T15:38:59;0.67;;;0.50;;
13090;SDS011;6611;52.604;13.438;2024-03-29T15:44:05;0.80;;;0.50;;
13090;SDS011;6611;52.604;13.438;2024-03-29T15:49:11;1.33;;;0.80;;
13090;SDS011;6611;52.604;13.438;2024-03-29T15:54:12;0.50;;;0.50;;
13090;SDS011;6611;52.604;13.438;2024-03-29T15:59:16;1.00;;;0.50;;
13090;SDS011;6611;52.604;13.438;2024-03-29T16:04:24;1.00;;;0.50;;
13090;SDS011;6611;52.604;13.438;2024-03-29T16:09:25;1.10;;;0.70;;
13090;SDS011;6611;52.604;13.438;2024-03-29T16:14:27;1.00;;;0.63;;
13090;SDS011;6611;52.604;13.438;2024-03-29T16:19:31;0.67;;;0.67;;
13090;SDS011;6611;52.604;13.438;2024-03-29T16:24:35;1.37;;;0.60;;
13090;SDS011;6611;52.604;13.438;2024-03-29T16:29:37;1.37;;;0.80;;
13090;SDS011;6611;52.604;13.438;2024-03-29T16:34:40;4.37;;;0.53;;
13090;SDS011;6611;52.604;13.438;2024-03-29T16:39:44;1.53;;;0.70;;
13090;SDS011;6611;52.604;13.438;2024-03-29T16:44:46;1.00;;;0.60;;
13090;SDS011;6611;52.604;13.438;2024-03-29T16:49:49;10.47;;;1.00;;
13090;SDS011;6611;52.604;13.438;2024-03-29T16:54:51;0.80;;;0.80;;
13090;SDS011;6611;52.604;13.438;2024-03-29T16:59:53;1.77;;;0.70;;
13090;SDS011;6611;52.604;13.438;2024-03-29T17:04:56;1.87;;;0.90;;
13090;SDS011;6611;52.604;13.438;2024-03-29T17:09:58;1.07;;;0.77;;
13090;SDS011;6611;52.604;13.438;2024-03-29T17:15:00;1.40;;;1.30;;
13090;SDS011;6611;52.604;13.438;2024-03-29T17:20:04;2.20;;;0.73;;
13090;SDS011;6611;52.604;13.438;2024-03-29T17:25:06;1.17;;;0.87;;
13090;SDS011;6611;52.604;13.438;2024-03-29T17:30:08;2.27;;;1.10;;
13090;SDS011;6611;52.604;13.438;2024-03-29T17:35:12;1.77;;;1.33;;
13090;SDS011;6611;52.604;13.438;2024-03-29T17:40:14;1.33;;;0.80;;
13090;SDS011;6611;52.604;13.438;2024-03-29T17:45:15;1.17;;;0.97;;
13090;SDS011;6611;52.604;13.438;2024-03-29T17:50:18;1.47;;;1.10;;
13090;SDS011;6611;52.604;13.438;2024-03-29T17:55:20;1.20;;;0.90;;
13090;SDS011;6611;52.604;13.438;2024-03-29T18:00:22;1.60;;;0.80;;
13090;SDS011;6611;52.604;13.438;2024-03-29T18:05:25;1.17;;;0.70;;
13090;SDS011;6611;52.604;13.438;2024-03-29T18:10:27;1.30;;;0.80;;
13090;SDS011;6611;52.604;13.438;2024-03-29T18:15:28;1.43;;;0.90;;
13090;SDS011;6611;52.604;13.438;2024-03-29T18:20:32;1.53;;;0.90;;
13090;SDS011;6611;52.604;13.438;2024-03-29T18:25:34;2.27;;;1.10;;
13090;SDS011;6611;52.604;13.438;2024-03-29T18:30:36;1.40;;;1.00;;
13090;SDS011;6611;52.604;13.438;2024-03-29T18:35:40;1.97;;;1.10;;
13090;SDS011;6611;52.604;13.438;2024-03-29T18:40:42;1.10;;;0.90;;
13090;SDS011;6611;52.604;13.438;2024-03-29T18:45:44;1.20;;;0.80;;
13090;SDS011;6611;52.604;13.438;2024-03-29T18:50:53;1.20;;;1.03;;
13090;SDS011;6611;52.604;13.438;2024-03-29T18:55:55;1.57;;;1.07;;
13090;SDS011;6611;52.604;13.438;2024-03-29T19:00:57;2.77;;;1.10;;
13090;SDS011;6611;52.604;13.438;2024-03-29T19:06:00;2.87;;;1.00;;
13090;SDS011;6611;52.604;13.438;2024-03-29T19:11:05;4.37;;;1.50;;
13090;SDS011;6611;52.604;13.438;2024-03-29T19:16:06;1.03;;;0.87;;
13090;SDS011;6611;52.604;13.438;2024-03-29T19:21:09;1.53;;;1.10;;
13090;SDS011;6611;52.604;13.438;2024-03-29T19:26:11;1.50;;;1.10;;
13090;SDS011;6611;52.604;13.438;2024-03-29T19:31:12;1.53;;;1.00;;
13090;SDS011;6611;52.604;13.438;2024-03-29T19:36:15;1.53;;;0.93;;
13090;SDS011;6611;52.604;13.438;2024-03-29T19:41:17;1.83;;;1.10;;
13090;SDS011;6611;52.604;13.438;2024-03-29T19:46:19;1.40;;;1.00;;
13090;SDS011;6611;52.604;13.438;2024-03-29T19:51:22;1.17;;;0.60;;
13090;SDS011;6611;52.604;13.438;2024-03-29T19:56:24;1.17;;;0.90;;
13090;SDS011;6611;52.604;13.438;2024-03-29T20:01:26;1.20;;;0.87;;
13090;SDS011;6611;52.604;13.438;2024-03-29T20:06:29;1.10;;;1.00;;
13090;SDS011;6611;52.604;13.438;2024-03-29T20:11:31;1.73;;;1.03;;
13090;SDS011;6611;52.604;13.438;2024-03-29T20:16:32;1.43;;;0.80;;
13090;SDS011;6611;52.604;13.438;2024-03-29T20:21:35;1.03;;;0.80;;
13090;SDS011;6611;52.604;13.438;2024-03-29T20:26:37;1.83;;;0.90;;
13090;SDS011;6611;52.604;13.438;2024-03-29T20:31:38;1.80;;;0.80;;
13090;SDS011;6611;52.604;13.438;2024-03-29T20:36:42;2.60;;;1.10;;
13090;SDS011;6611;52.604;13.438;2024-03-29T20:41:44;1.10;;;0.97;;
13090;SDS011;6611;52.604;13.438;2024-03-29T20:46:46;0.77;;;0.70;;
13090;SDS011;6611;52.604;13.438;2024-03-29T20:51:49;0.80;;;0.77;;
13090;SDS011;6611;52.604;13.438;2024-03-29T20:56:51;1.70;;;0.70;;
13090;SDS011;6611;52.604;13.438;2024-03-29T21:01:53;3.40;;;0.90;;
13090;SDS011;6611;52.604;13.438;2024-03-29T21:07:13;0.90;;;0.80;;
13090;SDS011;6611;52.604;13.438;2024-03-29T21:12:15;1.43;;;1.00;;
13090;SDS011;6611;52.604;13.438;2024-03-29T21:17:17;1.67;;;0.90;;
13090;SDS011;6611;52.604;13.438;2024-03-29T21:22:20;1.10;;;1.00;;
13090;SDS011;6611;52.604;13.438;2024-03-29T21:27:22;2.40;;;1.00;;
13090;SDS011;6611;52.604;13.438;2024-03-29T21:32:23;1.20;;;0.90;;
13090;SDS011;6611;52.604;13.438;2024-03-29T21:37:26;1.93;;;1.10;;
13090;SDS011;6611;52.604;13.438;2024-03-29T21:42:28;1.30;;;1.10;;
13090;SDS011;6611;52.604;13.438;2024-03-29T21:47:30;2.77;;;1.37;;
13090;SDS011;6611;52.604;13.438;2024-03-29T21:52:34;2.13;;;1.30;;
13090;SDS011;6611;52.604;13.438;2024-03-29T21:57:36;1.50;;;1.40;;
13090;SDS011;6611;52.604;13.438;2024-03-29T22:02:38;2.47;;;1.73;;
13090;SDS011;6611;52.604;13.438;2024-03-29T22:07:42;4.97;;;3.67;;
13090;SDS011;6611;52.604;13.438;2024-03-29T22:12:44;1.63;;;1.40;;
13090;SDS011;6611;52.604;13.438;2024-03-29T22:17:46;2.53;;;1.57;;
13090;SDS011;6611;52.604;13.438;2024-03-29T22:22:51;8.40;;;4.60;;
13090;SDS011;6611;52.604;13.438;2024-03-29T22:27:53;5.87;;;3.90;;
13090;SDS011;6611;52.604;13.438;2024-03-29T22:32:55;6.80;;;3.40;;
13090;SDS011;6611;52.604;13.438;2024-03-29T22:37:59;5.93;;;4.10;;
13090;SDS011;6611;52.604;13.438;2024-03-29T22:43:00;5.33;;;3.97;;
13090;SDS011;6611;52.604;13.438;2024-03-29T22:48:02;7.43;;;4.43;;
13090;SDS011;6611;52.604;13.438;2024-03-29T22:53:06;5.17;;;3.53;;
13090;SDS011;6611;52.604;13.438;2024-03-29T22:58:08;4.47;;;3.10;;
13090;SDS011;6611;52.604;13.438;2024-03-29T23:03:09;3.97;;;3.57;;
13090;SDS011;6611;52.604;13.438;2024-03-29T23:08:12;3.77;;;2.63;;
13090;SDS011;6611;52.604;13.438;2024-03-29T23:13:14;3.40;;;2.63;;
13090;SDS011;6611;52.604;13.438;2024-03-29T23:18:16;3.10;;;2.60;;
13090;SDS011;6611;52.604;13.438;2024-03-29T23:23:19;3.50;;;2.63;;
13090;SDS011;6611;52.604;13.438;2024-03-29T23:28:21;3.27;;;2.77;;
13090;SDS011;6611;52.604;13.438;2024-03-29T23:33:23;3.10;;;2.70;;
13090;SDS011;6611;52.604;13.438;2024-03-29T23:38:28;4.20;;;2.63;;
13090;SDS011;6611;52.604;13.438;2024-03-29T23:43:30;3.40;;;2.70;;
13090;SDS011;6611;52.604;13.438;2024-03-29T23:48:33;3.87;;;2.67;;
13090;SDS011;6611;52.604;13.438;2024-03-29T23:53:36;3.23;;;2.47;;
13090;SDS011;6611;52.604;13.438;2024-03-29T23:58:37;3.87;;;2.97;;
